createdAt,value
2019-02-09T00:00:42.992Z,998.19
2019-02-09T00:01:42.975Z,998.19
2019-02-09T00:02:43.063Z,998.22
2019-02-09T00:03:43.037Z,998.17
2019-02-09T00:04:43.120Z,998.15
2019-02-09T00:05:43.154Z,998.17
2019-02-09T00:06:43.128Z,998.21
2019-02-09T00:07:43.163Z,998.26
2019-02-09T00:08:43.243Z,998.20
2019-02-09T00:09:43.278Z,998.24
2019-02-09T00:10:43.252Z,998.24
2019-02-09T00:11:43.341Z,998.25
2019-02-09T00:12:43.319Z,998.24
2019-02-09T00:13:43.405Z,998.14
2019-02-09T00:14:43.441Z,998.28
2019-02-09T00:15:43.420Z,998.27
2019-02-09T00:16:43.506Z,998.21
2019-02-09T00:17:43.475Z,998.20
2019-02-09T00:18:43.508Z,998.18
2019-02-09T00:19:43.583Z,998.07
2019-02-09T00:20:43.621Z,998.14
2019-02-09T00:21:43.601Z,998.18
2019-02-09T00:22:43.641Z,998.17
2019-02-09T00:23:43.712Z,998.15
2019-02-09T00:24:43.744Z,998.11
2019-02-09T00:25:43.776Z,998.04
2019-02-09T00:26:43.750Z,998.04
2019-02-09T00:28:43.814Z,997.98
2019-02-09T00:29:46.430Z,997.96
2019-02-09T00:30:43.943Z,997.95
2019-02-09T00:32:43.994Z,997.86
2019-02-09T00:33:44.030Z,997.84
2019-02-09T00:34:44.005Z,997.78
2019-02-09T00:35:44.034Z,997.77
2019-02-09T00:36:44.119Z,997.68
2019-02-09T00:37:44.151Z,997.71
2019-02-09T00:38:44.133Z,997.69
2019-02-09T00:39:44.165Z,997.70
2019-02-09T00:40:44.249Z,997.73
2019-02-09T00:41:44.226Z,997.69
2019-02-09T00:42:44.310Z,997.64
2019-02-09T00:43:44.283Z,997.63
2019-02-09T00:44:44.371Z,997.64
2019-02-09T00:45:44.349Z,997.68
2019-02-09T00:46:44.385Z,997.68
2019-02-09T00:47:44.473Z,997.67
2019-02-09T00:48:44.494Z,997.63
2019-02-09T00:49:44.476Z,997.59
2019-02-09T00:50:44.506Z,997.50
2019-02-09T00:51:44.593Z,997.54
2019-02-09T00:52:44.627Z,997.39
2019-02-09T00:53:44.604Z,997.43
2019-02-09T00:54:44.630Z,997.43
2019-02-09T00:55:44.661Z,997.43
2019-02-09T00:56:44.802Z,997.37
2019-02-09T00:57:44.777Z,997.34
2019-02-09T00:58:44.761Z,997.35
2019-02-09T00:59:44.789Z,997.44
2019-02-09T01:00:44.872Z,997.39
2019-02-09T01:01:44.855Z,997.34
2019-02-09T01:02:44.938Z,997.40
2019-02-09T01:03:44.916Z,997.37
2019-02-09T01:04:45.000Z,997.36
2019-02-09T01:05:44.973Z,997.36
2019-02-09T01:06:45.007Z,997.38
2019-02-09T01:07:45.087Z,997.40
2019-02-09T01:08:45.125Z,997.38
2019-02-09T01:09:45.107Z,997.32
2019-02-09T01:10:45.143Z,997.38
2019-02-09T01:11:45.167Z,997.26
2019-02-09T01:12:45.194Z,997.28
2019-02-09T01:13:45.282Z,997.22
2019-02-09T01:14:45.267Z,997.21
2019-02-09T01:16:45.320Z,997.24
2019-02-09T01:17:45.402Z,997.23
2019-02-09T01:18:45.399Z,997.17
2019-02-09T01:19:45.418Z,997.25
2019-02-09T01:20:45.501Z,997.18
2019-02-09T01:21:45.475Z,997.23
2019-02-09T01:22:45.563Z,997.19
2019-02-09T01:23:45.592Z,997.19
2019-02-09T01:24:45.623Z,997.19
2019-02-09T01:25:45.599Z,997.19
2019-02-09T01:26:45.644Z,997.18
2019-02-09T01:27:45.663Z,997.21
2019-02-09T01:28:45.702Z,997.14
2019-02-09T01:29:45.780Z,997.14
2019-02-09T01:30:45.758Z,997.21
2019-02-09T01:31:45.843Z,997.21
2019-02-09T01:32:45.826Z,997.21
2019-02-09T01:34:45.937Z,997.23
2019-02-09T01:35:45.917Z,997.26
2019-02-09T01:36:46.001Z,997.25
2019-02-09T01:37:45.980Z,997.22
2019-02-09T01:38:46.007Z,997.18
2019-02-09T01:39:46.094Z,997.12
2019-02-09T01:40:46.133Z,997.16
2019-02-09T01:41:46.105Z,997.22
2019-02-09T01:42:46.134Z,997.24
2019-02-09T01:43:46.218Z,997.26
2019-02-09T01:44:46.196Z,997.24
2019-02-09T01:45:46.226Z,997.25
2019-02-09T01:46:46.263Z,997.27
2019-02-09T01:47:46.343Z,997.31
2019-02-09T01:48:46.374Z,997.31
2019-02-09T01:49:46.401Z,997.30
2019-02-09T01:50:46.384Z,997.27
2019-02-09T01:51:46.419Z,997.22
2019-02-09T01:52:46.450Z,997.25
2019-02-09T01:53:46.483Z,997.27
2019-02-09T01:54:46.557Z,997.30
2019-02-09T01:55:46.539Z,997.25
2019-02-09T01:56:46.574Z,997.33
2019-02-09T01:57:46.603Z,997.35
2019-02-09T01:58:46.634Z,997.33
2019-02-09T01:59:46.721Z,997.37
2019-02-09T02:00:46.749Z,997.37
2019-02-09T02:01:46.733Z,997.38
2019-02-09T02:02:46.764Z,997.31
2019-02-09T02:03:46.794Z,997.35
2019-02-09T02:04:46.875Z,997.39
2019-02-09T02:06:46.941Z,997.39
2019-02-09T02:07:46.918Z,997.41
2019-02-09T02:08:46.965Z,997.37
2019-02-09T02:09:46.977Z,997.28
2019-02-09T02:10:47.014Z,997.33
2019-02-09T02:11:47.093Z,997.28
2019-02-09T02:12:47.128Z,997.27
2019-02-09T02:13:47.102Z,997.25
2019-02-09T02:14:47.192Z,997.30
2019-02-09T02:15:47.226Z,997.22
2019-02-09T02:16:47.247Z,997.25
2019-02-09T02:17:47.284Z,997.35
2019-02-09T02:18:47.266Z,997.29
2019-02-09T02:19:47.289Z,997.28
2019-02-09T02:20:47.336Z,997.30
2019-02-09T02:21:47.361Z,997.28
2019-02-09T02:22:47.433Z,997.31
2019-02-09T02:23:47.424Z,997.32
2019-02-09T02:24:47.515Z,997.35
2019-02-09T02:25:47.484Z,997.29
2019-02-09T02:26:47.513Z,997.32
2019-02-09T02:27:47.597Z,997.25
2019-02-09T02:28:47.627Z,997.22
2019-02-09T02:29:47.605Z,997.17
2019-02-09T02:30:47.636Z,997.19
2019-02-09T02:31:47.717Z,997.17
2019-02-09T02:32:47.698Z,997.06
2019-02-09T02:33:47.728Z,997.01
2019-02-09T02:34:47.760Z,996.88
2019-02-09T02:35:47.853Z,996.84
2019-02-09T02:36:47.876Z,996.84
2019-02-09T02:37:47.861Z,996.81
2019-02-09T02:38:47.887Z,996.82
2019-02-09T02:39:47.916Z,996.72
2019-02-09T02:40:47.949Z,996.75
2019-02-09T02:41:48.027Z,996.68
2019-02-09T02:42:48.006Z,996.70
2019-02-09T02:43:48.038Z,996.72
2019-02-09T02:44:48.120Z,996.69
2019-02-09T02:45:48.151Z,996.68
2019-02-09T02:46:48.138Z,996.79
2019-02-09T02:47:48.163Z,996.77
2019-02-09T02:48:48.195Z,996.81
2019-02-09T02:49:48.277Z,996.83
2019-02-09T02:50:48.311Z,996.89
2019-02-09T02:51:48.348Z,996.90
2019-02-09T02:52:48.326Z,996.92
2019-02-09T02:53:48.349Z,996.92
2019-02-09T02:54:48.383Z,996.85
2019-02-09T02:55:48.519Z,996.84
2019-02-09T02:56:48.496Z,996.86
2019-02-09T02:57:48.528Z,996.93
2019-02-09T02:58:48.511Z,996.95
2019-02-09T02:59:48.538Z,996.97
2019-02-09T03:00:48.626Z,996.99
2019-02-09T03:01:48.648Z,997.04
2019-02-09T03:02:48.690Z,996.99
2019-02-09T03:03:48.669Z,997.04
2019-02-09T03:04:48.700Z,997.01
2019-02-09T03:06:48.812Z,997.06
2019-02-09T03:07:48.786Z,997.17
2019-02-09T03:08:48.971Z,997.22
2019-02-09T03:09:48.854Z,997.17
2019-02-09T03:10:48.885Z,997.20
2019-02-09T03:11:48.960Z,997.25
2019-02-09T03:12:48.950Z,997.26
2019-02-09T03:13:48.970Z,997.22
2019-02-09T03:14:49.004Z,997.33
2019-02-09T03:15:49.037Z,997.32
2019-02-09T03:16:49.116Z,997.39
2019-02-09T03:17:49.161Z,997.34
2019-02-09T03:18:49.181Z,997.41
2019-02-09T03:19:49.163Z,997.38
2019-02-09T03:20:49.217Z,997.39
2019-02-09T03:21:49.223Z,997.35
2019-02-09T03:22:49.255Z,997.40
2019-02-09T03:23:49.338Z,997.38
2019-02-09T03:24:49.376Z,997.42
2019-02-09T03:25:49.415Z,997.39
2019-02-09T03:26:49.380Z,997.48
2019-02-09T03:27:49.405Z,997.48
2019-02-09T03:28:49.493Z,997.41
2019-02-09T03:29:49.526Z,997.43
2019-02-09T03:30:49.550Z,997.42
2019-02-09T03:31:49.535Z,997.44
2019-02-09T03:32:49.570Z,997.44
2019-02-09T03:33:49.646Z,997.43
2019-02-09T03:34:49.628Z,997.41
2019-02-09T03:35:49.657Z,997.52
2019-02-09T03:36:49.687Z,997.49
2019-02-09T03:37:49.719Z,997.51
2019-02-09T03:38:49.809Z,997.51
2019-02-09T03:39:49.788Z,997.52
2019-02-09T03:40:49.872Z,997.58
2019-02-09T03:41:49.892Z,997.55
2019-02-09T03:42:49.884Z,997.51
2019-02-09T03:43:50.054Z,997.56
2019-02-09T03:44:49.962Z,997.61
2019-02-09T03:45:49.962Z,997.55
2019-02-09T03:46:50.049Z,997.63
2019-02-09T03:47:50.114Z,997.68
2019-02-09T03:48:50.069Z,997.72
2019-02-09T03:49:50.092Z,997.71
2019-02-09T03:50:50.121Z,997.71
2019-02-09T03:51:50.154Z,997.71
2019-02-09T03:52:50.232Z,997.77
2019-02-09T03:54:50.293Z,997.73
2019-02-09T03:55:50.285Z,997.71
2019-02-09T03:56:50.357Z,997.78
2019-02-09T03:57:50.392Z,997.78
2019-02-09T03:58:50.368Z,997.77
2019-02-09T03:59:50.452Z,997.69
2019-02-09T04:01:50.514Z,997.66
2019-02-09T04:02:50.539Z,997.70
2019-02-09T04:03:50.521Z,997.64
2019-02-09T04:04:50.600Z,997.65
2019-02-09T04:05:50.636Z,997.65
2019-02-09T04:06:50.617Z,997.72
2019-02-09T04:07:50.714Z,997.73
2019-02-09T04:08:50.724Z,997.69
2019-02-09T04:09:50.705Z,997.68
2019-02-09T04:10:50.741Z,997.72
2019-02-09T04:11:50.772Z,997.70
2019-02-09T04:12:50.801Z,997.74
2019-02-09T04:13:50.882Z,997.76
2019-02-09T04:14:50.860Z,997.73
2019-02-09T04:15:50.929Z,997.79
2019-02-09T04:17:50.960Z,997.82
2019-02-09T04:18:51.038Z,997.87
2019-02-09T04:19:51.019Z,997.87
2019-02-09T04:20:51.096Z,997.81
2019-02-09T04:21:51.083Z,997.85
2019-02-09T04:22:51.113Z,997.82
2019-02-09T04:23:51.201Z,997.90
2019-02-09T04:24:51.173Z,997.84
2019-02-09T04:25:51.248Z,997.91
2019-02-09T04:26:51.292Z,997.84
2019-02-09T04:27:51.264Z,997.92
2019-02-09T04:28:51.344Z,997.91
2019-02-09T04:29:51.321Z,997.92
2019-02-09T04:30:51.426Z,997.84
2019-02-09T04:31:51.384Z,998.00
2019-02-09T04:32:51.467Z,998.01
2019-02-09T04:33:51.497Z,997.98
2019-02-09T04:34:51.473Z,998.03
2019-02-09T04:35:51.506Z,998.13
2019-02-09T04:36:51.534Z,998.07
2019-02-09T04:37:51.580Z,997.96
2019-02-09T04:38:51.649Z,998.05
2019-02-09T04:39:51.634Z,998.14
2019-02-09T04:40:51.713Z,998.10
2019-02-09T04:41:51.690Z,998.16
2019-02-09T04:42:51.721Z,998.17
2019-02-09T04:43:51.807Z,998.16
2019-02-09T04:44:51.786Z,998.13
2019-02-09T04:47:51.933Z,998.19
2019-02-09T04:48:51.957Z,998.24
2019-02-09T04:50:52.018Z,998.24
2019-02-09T04:51:52.004Z,998.29
2019-02-09T04:52:52.136Z,998.23
2019-02-09T04:53:52.063Z,998.27
2019-02-09T04:54:52.093Z,998.33
2019-02-09T04:55:52.174Z,998.32
2019-02-09T04:56:52.201Z,998.33
2019-02-09T04:57:52.179Z,998.34
2019-02-09T04:58:52.263Z,998.32
2019-02-09T04:59:52.246Z,998.38
2019-02-09T05:00:52.276Z,998.30
2019-02-09T05:01:52.356Z,998.33
2019-02-09T05:02:52.376Z,998.36
2019-02-09T05:03:52.369Z,998.37
2019-02-09T05:04:52.449Z,998.40
2019-02-09T05:05:52.481Z,998.40
2019-02-09T05:06:52.464Z,998.41
2019-02-09T05:07:52.485Z,998.43
2019-02-09T05:08:52.567Z,998.43
2019-02-09T05:09:52.549Z,998.50
2019-02-09T05:10:52.626Z,998.40
2019-02-09T05:11:52.715Z,998.46
2019-02-09T05:12:52.646Z,998.45
2019-02-09T05:13:52.669Z,998.37
2019-02-09T05:14:52.714Z,998.44
2019-02-09T05:15:52.783Z,998.42
2019-02-09T05:16:52.832Z,998.36
2019-02-09T05:17:52.815Z,998.51
2019-02-09T05:18:52.820Z,998.39
2019-02-09T05:19:52.959Z,998.54
2019-02-09T05:20:52.948Z,998.60
2019-02-09T05:21:52.977Z,998.60
2019-02-09T05:22:52.954Z,998.50
2019-02-09T05:23:52.980Z,998.54
2019-02-09T05:24:53.006Z,998.56
2019-02-09T05:25:53.098Z,998.56
2019-02-09T05:26:53.075Z,998.55
2019-02-09T05:27:53.149Z,998.64
2019-02-09T05:28:53.176Z,998.54
2019-02-09T05:29:53.208Z,998.60
2019-02-09T05:30:53.196Z,998.57
2019-02-09T05:31:53.232Z,998.60
2019-02-09T05:32:53.305Z,998.67
2019-02-09T05:33:53.335Z,998.70
2019-02-09T05:34:53.317Z,998.75
2019-02-09T05:35:53.348Z,998.73
2019-02-09T05:36:53.376Z,998.81
2019-02-09T05:37:53.456Z,998.84
2019-02-09T05:38:53.429Z,998.87
2019-02-09T05:39:53.467Z,998.93
2019-02-09T05:40:53.540Z,998.93
2019-02-09T05:41:53.569Z,998.95
2019-02-09T05:42:53.604Z,998.98
2019-02-09T05:43:53.635Z,998.96
2019-02-09T05:44:53.648Z,998.97
2019-02-09T05:45:53.657Z,999.01
2019-02-09T05:46:53.723Z,999.00
2019-02-09T05:47:53.704Z,999.04
2019-02-09T05:49:53.766Z,999.01
2019-02-09T05:50:53.817Z,999.09
2019-02-09T05:51:53.880Z,999.02
2019-02-09T05:52:53.912Z,999.08
2019-02-09T05:53:53.891Z,999.19
2019-02-09T05:54:53.922Z,999.19
2019-02-09T05:55:53.955Z,999.16
2019-02-09T05:56:53.979Z,999.15
2019-02-09T05:57:54.061Z,999.23
2019-02-09T05:58:54.091Z,999.24
2019-02-09T05:59:54.067Z,999.32
2019-02-09T06:00:54.225Z,999.27
2019-02-09T06:01:54.219Z,999.15
2019-02-09T06:02:54.166Z,999.24
2019-02-09T06:03:54.195Z,999.28
2019-02-09T06:04:54.274Z,999.36
2019-02-09T06:05:54.308Z,999.22
2019-02-09T06:06:54.284Z,999.24
2019-02-09T06:07:54.324Z,999.31
2019-02-09T06:08:54.392Z,999.39
2019-02-09T06:09:54.379Z,999.34
2019-02-09T06:10:54.401Z,999.35
2019-02-09T06:11:54.436Z,999.33
2019-02-09T06:12:54.463Z,999.34
2019-02-09T06:13:54.553Z,999.31
2019-02-09T06:14:54.525Z,999.38
2019-02-09T06:15:54.619Z,999.38
2019-02-09T06:16:54.641Z,999.38
2019-02-09T06:17:54.615Z,999.40
2019-02-09T06:18:54.703Z,999.39
2019-02-09T06:19:54.682Z,999.36
2019-02-09T06:20:54.813Z,999.34
2019-02-09T06:21:54.737Z,999.32
2019-02-09T06:22:54.818Z,999.40
2019-02-09T06:23:54.855Z,999.38
2019-02-09T06:24:54.890Z,999.35
2019-02-09T06:25:55.080Z,999.38
2019-02-09T06:26:54.891Z,999.33
2019-02-09T06:27:54.921Z,999.41
2019-02-09T06:28:55.005Z,999.35
2019-02-09T06:29:54.995Z,999.39
2019-02-09T06:30:55.065Z,999.42
2019-02-09T06:31:55.090Z,999.35
2019-02-09T06:32:55.122Z,999.42
2019-02-09T06:33:55.154Z,999.45
2019-02-09T06:34:55.237Z,999.48
2019-02-09T06:35:55.170Z,999.46
2019-02-09T06:36:55.244Z,999.36
2019-02-09T06:37:55.280Z,999.36
2019-02-09T06:39:55.298Z,999.37
2019-02-09T06:40:55.369Z,999.42
2019-02-09T06:41:55.405Z,999.44
2019-02-09T06:42:55.381Z,999.45
2019-02-09T06:43:55.409Z,999.48
2019-02-09T06:44:55.435Z,999.39
2019-02-09T06:45:55.515Z,999.43
2019-02-09T06:46:55.499Z,999.43
2019-02-09T06:47:55.590Z,999.50
2019-02-09T06:48:55.613Z,999.51
2019-02-09T06:49:55.591Z,999.48
2019-02-09T06:50:55.623Z,999.62
2019-02-09T06:51:55.651Z,999.57
2019-02-09T06:52:55.739Z,999.61
2019-02-09T06:53:55.706Z,999.55
2019-02-09T06:54:55.743Z,999.57
2019-02-09T06:55:55.772Z,999.65
2019-02-09T06:56:55.848Z,999.59
2019-02-09T06:57:55.900Z,999.56
2019-02-09T06:58:55.865Z,999.57
2019-02-09T06:59:55.895Z,999.57
2019-02-09T07:00:55.921Z,999.60
2019-02-09T07:01:55.948Z,999.64
2019-02-09T07:02:56.045Z,999.71
2019-02-09T07:03:56.010Z,999.73
2019-02-09T07:04:56.108Z,999.67
2019-02-09T07:05:56.125Z,999.65
2019-02-09T07:06:56.106Z,999.69
2019-02-09T07:07:56.151Z,999.76
2019-02-09T07:08:56.232Z,999.84
2019-02-09T07:09:56.249Z,999.86
2019-02-09T07:10:56.278Z,999.88
2019-02-09T07:11:56.303Z,999.91
2019-02-09T07:12:56.340Z,999.92
2019-02-09T07:13:56.322Z,999.88
2019-02-09T07:14:56.345Z,999.92
2019-02-09T07:15:56.427Z,999.91
2019-02-09T07:16:56.514Z,999.93
2019-02-09T07:17:56.450Z,999.89
2019-02-09T07:18:56.481Z,1000.01
2019-02-09T07:19:56.509Z,999.92
2019-02-09T07:20:56.530Z,1000.02
2019-02-09T07:21:56.611Z,1000.08
2019-02-09T07:22:56.593Z,1000.09
2019-02-09T07:23:56.623Z,1000.13
2019-02-09T07:24:56.707Z,1000.15
2019-02-09T07:25:56.682Z,1000.17
2019-02-09T07:26:56.781Z,1000.10
2019-02-09T07:27:56.740Z,1000.23
2019-02-09T07:28:56.770Z,1000.20
2019-02-09T07:29:56.830Z,1000.19
2019-02-09T07:30:56.885Z,1000.22
2019-02-09T07:31:56.869Z,1000.22
2019-02-09T07:32:56.906Z,1000.25
2019-02-09T07:33:56.926Z,1000.28
2019-02-09T07:34:56.951Z,1000.28
2019-02-09T07:35:57.038Z,1000.32
2019-02-09T07:36:57.061Z,1000.31
2019-02-09T07:37:57.099Z,1000.34
2019-02-09T07:38:57.083Z,1000.36
2019-02-09T07:39:57.106Z,1000.36
2019-02-09T07:40:57.144Z,1000.30
2019-02-09T07:41:57.161Z,1000.44
2019-02-09T07:42:57.244Z,1000.44
2019-02-09T07:43:57.229Z,1000.47
2019-02-09T07:44:57.304Z,1000.42
2019-02-09T07:45:57.346Z,1000.44
2019-02-09T07:46:57.322Z,1000.47
2019-02-09T07:47:57.349Z,1000.51
2019-02-09T07:48:57.432Z,1000.50
2019-02-09T07:49:57.409Z,1000.63
2019-02-09T07:50:57.491Z,1000.57
2019-02-09T07:51:57.472Z,1000.57
2019-02-09T07:52:57.553Z,1000.71
2019-02-09T07:53:57.579Z,1000.73
2019-02-09T07:54:57.556Z,1000.73
2019-02-09T07:55:57.592Z,1000.74
2019-02-09T07:56:57.621Z,1000.76
2019-02-09T07:57:57.653Z,1000.71
2019-02-09T07:58:57.728Z,1000.88
2019-02-09T07:59:57.713Z,1000.91
2019-02-09T08:00:57.764Z,1001.02
2019-02-09T08:02:04.413Z,1000.91
2019-02-09T08:02:57.800Z,1000.99
2019-02-09T08:03:57.880Z,1001.03
2019-02-09T08:04:57.917Z,1001.05
2019-02-09T08:05:57.911Z,1001.02
2019-02-09T08:06:57.985Z,1001.02
2019-02-09T08:07:58.012Z,1001.02
2019-02-09T08:08:58.044Z,1001.12
2019-02-09T08:09:58.063Z,1001.03
2019-02-09T08:10:58.093Z,1001.13
2019-02-09T08:11:58.085Z,1001.07
2019-02-09T08:12:58.115Z,1001.19
2019-02-09T08:13:58.273Z,1001.09
2019-02-09T08:14:58.168Z,1001.15
2019-02-09T08:15:58.196Z,1001.16
2019-02-09T08:16:58.484Z,1001.14
2019-02-09T08:17:58.257Z,1001.14
2019-02-09T08:18:58.342Z,1001.18
2019-02-09T08:19:58.320Z,1001.20
2019-02-09T08:20:58.372Z,1001.13
2019-02-09T08:21:58.452Z,1001.11
2019-02-09T08:22:58.413Z,1001.16
2019-02-09T08:23:58.446Z,1001.22
2019-02-09T08:24:58.526Z,1001.16
2019-02-09T08:25:58.497Z,1001.16
2019-02-09T08:26:58.584Z,1001.22
2019-02-09T08:27:58.569Z,1001.11
2019-02-09T08:28:58.638Z,1001.18
2019-02-09T08:29:58.767Z,1001.16
2019-02-09T08:31:58.740Z,1001.20
2019-02-09T08:32:58.725Z,1001.28
2019-02-09T08:33:58.751Z,1001.15
2019-02-09T08:34:58.826Z,1001.17
2019-02-09T08:35:58.810Z,1001.24
2019-02-09T08:36:58.886Z,1001.21
2019-02-09T08:37:58.942Z,1001.26
2019-02-09T08:38:58.911Z,1001.17
2019-02-09T08:39:58.981Z,1001.26
2019-02-09T08:40:59.003Z,1001.29
2019-02-09T08:41:59.032Z,1001.31
2019-02-09T08:42:59.018Z,1001.33
2019-02-09T08:43:59.098Z,1001.34
2019-02-09T08:44:59.085Z,1001.35
2019-02-09T08:45:59.109Z,1001.25
2019-02-09T08:46:59.146Z,1001.28
2019-02-09T08:47:59.230Z,1001.35
2019-02-09T08:48:59.253Z,1001.35
2019-02-09T08:49:59.225Z,1001.27
2019-02-09T08:50:59.257Z,1001.37
2019-02-09T08:51:59.292Z,1001.38
2019-02-09T08:52:59.325Z,1001.32
2019-02-09T08:53:59.406Z,1001.17
2019-02-09T08:54:59.432Z,1001.28
2019-02-09T08:55:59.411Z,1001.31
2019-02-09T08:56:59.489Z,1001.34
2019-02-09T08:57:59.526Z,1001.30
2019-02-09T08:58:59.518Z,1001.41
2019-02-09T08:59:59.598Z,1001.43
2019-02-09T09:00:59.620Z,1001.31
2019-02-09T09:01:59.594Z,1001.45
2019-02-09T09:02:59.625Z,1001.41
2019-02-09T09:03:59.665Z,1001.49
2019-02-09T09:04:59.696Z,1001.45
2019-02-09T09:05:59.726Z,1001.54
2019-02-09T09:06:59.750Z,1001.31
2019-02-09T09:07:59.776Z,1001.48
2019-02-09T09:08:59.810Z,1001.44
2019-02-09T09:09:59.843Z,1001.48
2019-02-09T09:11:01.384Z,1001.50
2019-02-09T09:11:59.902Z,1001.54
2019-02-09T09:12:59.989Z,1001.48
2019-02-09T09:14:00.063Z,1001.49
2019-02-09T09:15:00.004Z,1001.49
2019-02-09T09:16:00.028Z,1001.47
2019-02-09T09:17:00.108Z,1001.47
2019-02-09T09:18:00.081Z,1001.44
2019-02-09T09:19:00.171Z,1001.46
2019-02-09T09:20:00.257Z,1001.52
2019-02-09T09:21:00.280Z,1001.57
2019-02-09T09:22:00.264Z,1001.58
2019-02-09T09:23:00.244Z,1001.55
2019-02-09T09:24:00.272Z,1001.61
2019-02-09T09:25:00.357Z,1001.41
2019-02-09T09:26:00.385Z,1001.60
2019-02-09T09:27:00.361Z,1001.71
2019-02-09T09:28:00.398Z,1001.64
2019-02-09T09:29:00.475Z,1001.60
2019-02-09T09:30:00.452Z,1001.65
2019-02-09T09:31:00.530Z,1001.60
2019-02-09T09:32:00.516Z,1001.64
2019-02-09T09:33:00.541Z,1001.65
2019-02-09T09:34:00.569Z,1001.61
2019-02-09T09:35:00.608Z,1001.58
2019-02-09T09:36:00.688Z,1001.68
2019-02-09T09:37:00.718Z,1001.66
2019-02-09T09:38:00.692Z,1001.74
2019-02-09T09:39:00.783Z,1001.77
2019-02-09T09:40:00.761Z,1001.83
2019-02-09T09:41:00.797Z,1001.88
2019-02-09T09:42:00.814Z,1001.89
2019-02-09T09:43:00.916Z,1001.83
2019-02-09T09:44:00.933Z,1001.92
2019-02-09T09:45:00.972Z,1001.89
2019-02-09T09:46:01.022Z,1001.83
2019-02-09T09:47:00.975Z,1001.85
2019-02-09T09:48:01.009Z,1001.88
2019-02-09T09:49:01.091Z,1001.89
2019-02-09T09:50:01.121Z,1001.97
2019-02-09T09:51:01.093Z,1001.95
2019-02-09T09:52:01.126Z,1002.00
2019-02-09T09:53:01.157Z,1002.00
2019-02-09T09:55:01.213Z,1002.08
2019-02-09T09:56:01.248Z,1002.04
2019-02-09T09:57:01.335Z,1002.01
2019-02-09T09:58:01.305Z,1001.99
2019-02-09T09:59:01.395Z,1002.02
2019-02-09T10:00:01.367Z,1002.03
2019-02-09T10:01:01.407Z,1002.08
2019-02-09T10:02:01.536Z,1002.03
2019-02-09T10:03:01.526Z,1002.06
2019-02-09T10:04:01.501Z,1002.02
2019-02-09T10:05:01.580Z,1002.06
2019-02-09T10:06:01.601Z,1001.98
2019-02-09T10:07:01.586Z,1002.03
2019-02-09T10:08:01.634Z,1002.02
2019-02-09T10:09:01.723Z,1002.06
2019-02-09T10:10:01.678Z,1002.08
2019-02-09T10:11:01.762Z,1002.13
2019-02-09T10:12:01.745Z,1002.04
2019-02-09T10:13:01.822Z,1002.21
2019-02-09T10:14:08.667Z,1002.26
2019-02-09T10:15:01.916Z,1002.23
2019-02-09T10:16:01.916Z,1002.26
2019-02-09T10:17:01.899Z,1002.24
2019-02-09T10:18:01.925Z,1002.21
2019-02-09T10:19:02.006Z,1002.29
2019-02-09T10:20:02.035Z,1002.29
2019-02-09T10:21:02.067Z,1002.29
2019-02-09T10:22:02.096Z,1002.28
2019-02-09T10:23:02.081Z,1002.29
2019-02-09T10:24:02.109Z,1002.33
2019-02-09T10:25:02.190Z,1002.30
2019-02-09T10:26:02.218Z,1002.26
2019-02-09T10:27:02.316Z,1002.22
2019-02-09T10:28:02.232Z,1002.15
2019-02-09T10:29:02.316Z,1002.24
2019-02-09T10:30:02.289Z,1002.16
2019-02-09T10:31:02.323Z,1002.23
2019-02-09T10:32:02.411Z,1002.19
2019-02-09T10:33:02.384Z,1002.19
2019-02-09T10:34:02.416Z,1002.19
2019-02-09T10:35:02.500Z,1002.18
2019-02-09T10:36:02.476Z,1002.14
2019-02-09T10:37:02.566Z,1002.16
2019-02-09T10:38:02.588Z,1002.18
2019-02-09T10:39:02.564Z,1002.15
2019-02-09T10:40:02.606Z,1002.12
2019-02-09T10:41:02.680Z,1002.17
2019-02-09T10:42:02.670Z,1002.09
2019-02-09T10:43:02.757Z,1002.18
2019-02-09T10:44:02.735Z,1002.13
2019-02-09T10:45:02.802Z,1002.19
2019-02-09T10:46:02.785Z,1002.15
2019-02-09T10:47:02.813Z,1002.22
2019-02-09T10:48:02.899Z,1002.25
2019-02-09T10:49:02.992Z,1002.17
2019-02-09T10:50:02.932Z,1002.16
2019-02-09T10:51:02.935Z,1002.18
2019-02-09T10:52:02.988Z,1002.19
2019-02-09T10:53:03.055Z,1002.16
2019-02-09T10:54:03.078Z,1002.26
2019-02-09T10:55:03.155Z,1002.07
2019-02-09T10:56:03.094Z,1002.18
2019-02-09T10:57:03.141Z,1002.09
2019-02-09T10:58:03.162Z,1002.02
2019-02-09T10:59:03.238Z,1002.06
2019-02-09T11:00:03.269Z,1001.97
2019-02-09T11:01:03.300Z,1002.00
2019-02-09T11:02:03.278Z,1002.05
2019-02-09T11:03:04.957Z,1001.88
2019-02-09T11:04:03.421Z,1001.95
2019-02-09T11:05:03.416Z,1002.05
2019-02-09T11:06:03.456Z,1002.02
2019-02-09T11:07:03.436Z,1001.96
2019-02-09T11:08:03.542Z,1002.01
2019-02-09T11:09:03.544Z,1002.04
2019-02-09T11:10:03.607Z,1001.95
2019-02-09T11:11:03.555Z,1001.87
2019-02-09T11:12:03.591Z,1001.99
2019-02-09T11:13:03.621Z,1001.96
2019-02-09T11:14:03.654Z,1002.11
2019-02-09T11:15:03.725Z,1002.17
2019-02-09T11:16:03.764Z,1002.16
2019-02-09T11:17:03.800Z,1002.11
2019-02-09T11:18:03.778Z,1002.20
2019-02-09T11:19:03.854Z,1002.15
2019-02-09T11:20:03.901Z,1002.16
2019-02-09T11:21:03.920Z,1002.25
2019-02-09T11:22:03.897Z,1002.02
2019-02-09T11:23:03.932Z,1002.13
2019-02-09T11:24:04.017Z,1002.36
2019-02-09T11:25:03.993Z,1002.08
2019-02-09T11:26:04.020Z,1002.09
2019-02-09T11:27:04.048Z,1002.25
2019-02-09T11:28:04.081Z,1002.12
2019-02-09T11:29:04.115Z,1002.16
2019-02-09T11:30:04.195Z,1002.18
2019-02-09T11:31:04.229Z,1002.14
2019-02-09T11:32:04.205Z,1002.22
2019-02-09T11:33:04.810Z,1002.09
2019-02-09T11:34:04.272Z,1002.04
2019-02-09T11:35:04.302Z,1002.19
2019-02-09T11:36:04.376Z,1002.08
2019-02-09T11:37:04.364Z,1002.13
2019-02-09T11:38:04.386Z,1002.16
2019-02-09T11:39:04.426Z,1002.10
2019-02-09T11:40:04.458Z,1002.17
2019-02-09T11:41:04.537Z,1002.12
2019-02-09T11:42:04.567Z,1002.18
2019-02-09T11:43:04.558Z,1002.27
2019-02-09T11:44:04.576Z,1002.11
2019-02-09T11:45:04.610Z,1002.08
2019-02-09T11:46:04.639Z,1002.14
2019-02-09T11:47:04.717Z,1002.14
2019-02-09T11:48:04.709Z,1002.22
2019-02-09T11:49:04.791Z,1002.17
2019-02-09T11:50:06.425Z,1002.19
2019-02-09T11:51:04.803Z,1002.18
2019-02-09T11:52:04.826Z,1002.17
2019-02-09T11:53:04.908Z,1002.07
2019-02-09T11:54:05.079Z,1002.23
2019-02-09T11:55:04.953Z,1002.16
2019-02-09T11:56:05.035Z,1002.09
2019-02-09T11:57:05.055Z,1002.13
2019-02-09T11:58:05.056Z,1002.23
2019-02-09T11:59:05.098Z,1002.22
2019-02-09T12:00:05.131Z,1002.18
2019-02-09T12:01:05.106Z,1002.15
2019-02-09T12:02:05.151Z,1002.19
2019-02-09T12:03:13.868Z,1002.14
2019-02-09T12:04:05.190Z,1002.13
2019-02-09T12:05:05.274Z,1002.18
2019-02-09T12:06:05.309Z,1002.16
2019-02-09T12:07:05.352Z,1002.06
2019-02-09T12:08:05.369Z,1001.89
2019-02-09T12:09:05.408Z,1002.02
2019-02-09T12:10:05.431Z,1002.05
2019-02-09T12:11:05.414Z,1002.01
2019-02-09T12:12:05.495Z,1002.08
2019-02-09T12:13:05.472Z,1002.18
2019-02-09T12:14:05.557Z,1002.14
2019-02-09T12:15:05.544Z,1002.15
2019-02-09T12:16:05.568Z,1002.08
2019-02-09T12:17:05.650Z,1002.14
2019-02-09T12:18:05.686Z,1002.00
2019-02-09T12:19:05.662Z,1002.08
2019-02-09T12:20:05.691Z,1002.09
2019-02-09T12:21:05.775Z,1002.02
2019-02-09T12:22:06.012Z,1002.18
2019-02-09T12:23:05.831Z,1002.15
2019-02-09T12:24:05.817Z,1002.13
2019-02-09T12:25:05.968Z,1002.09
2019-02-09T12:26:05.926Z,1002.07
2019-02-09T12:27:05.962Z,1002.19
2019-02-09T12:28:06.006Z,1002.13
2019-02-09T12:29:06.046Z,1002.21
2019-02-09T12:30:06.008Z,1002.24
2019-02-09T12:31:06.133Z,1002.24
2019-02-09T12:32:06.069Z,1002.24
2019-02-09T12:33:06.162Z,1002.29
2019-02-09T12:34:06.136Z,1002.50
2019-02-09T12:35:06.216Z,1002.52